sensor_id;sensor_type;location;lat;lon;timestamp;P1;durP1;ratioP1;P2;durP2;ratioP2
70426;SDS011;57872;55.432;37.248;2022-11-20T00:03:49;19.70;;;9.60;;
70426;SDS011;57872;55.432;37.248;2022-11-20T00:09:14;20.33;;;9.07;;
70426;SDS011;57872;55.432;37.248;2022-11-20T00:14:40;21.10;;;10.23;;
70426;SDS011;57872;55.432;37.248;2022-11-20T00:19:59;20.47;;;9.70;;
70426;SDS011;57872;55.432;37.248;2022-11-20T00:25:00;20.43;;;9.87;;
70426;SDS011;57872;55.432;37.248;2022-11-20T00:30:01;20.33;;;9.93;;
70426;SDS011;57872;55.432;37.248;2022-11-20T00:35:01;18.53;;;9.53;;
70426;SDS011;57872;55.432;37.248;2022-11-20T00:40:02;17.77;;;8.63;;
70426;SDS011;57872;55.432;37.248;2022-11-20T00:45:04;19.90;;;8.63;;
70426;SDS011;57872;55.432;37.248;2022-11-20T00:50:05;17.37;;;8.10;;
70426;SDS011;57872;55.432;37.248;2022-11-20T00:55:06;16.87;;;7.90;;
70426;SDS011;57872;55.432;37.248;2022-11-20T01:00:07;18.40;;;7.87;;
70426;SDS011;57872;55.432;37.248;2022-11-20T01:05:08;17.70;;;8.50;;
70426;SDS011;57872;55.432;37.248;2022-11-20T01:10:09;18.47;;;8.27;;
70426;SDS011;57872;55.432;37.248;2022-11-20T01:15:10;15.73;;;7.23;;
70426;SDS011;57872;55.432;37.248;2022-11-20T01:20:11;14.80;;;7.40;;
70426;SDS011;57872;55.432;37.248;2022-11-20T01:25:12;15.37;;;7.40;;
70426;SDS011;57872;55.432;37.248;2022-11-20T01:30:13;15.17;;;7.30;;
70426;SDS011;57872;55.432;37.248;2022-11-20T01:35:14;16.77;;;8.50;;
70426;SDS011;57872;55.432;37.248;2022-11-20T01:40:15;18.23;;;8.23;;
70426;SDS011;57872;55.432;37.248;2022-11-20T01:50:53;18.60;;;7.93;;
70426;SDS011;57872;55.432;37.248;2022-11-20T01:55:54;17.43;;;7.43;;
70426;SDS011;57872;55.432;37.248;2022-11-20T02:00:57;14.30;;;7.87;;
70426;SDS011;57872;55.432;37.248;2022-11-20T02:06:04;16.67;;;8.23;;
70426;SDS011;57872;55.432;37.248;2022-11-20T02:11:08;18.50;;;7.73;;
70426;SDS011;57872;55.432;37.248;2022-11-20T02:21:15;16.23;;;7.75;;
70426;SDS011;57872;55.432;37.248;2022-11-20T02:26:23;18.83;;;8.80;;
70426;SDS011;57872;55.432;37.248;2022-11-20T02:31:26;15.77;;;8.10;;
70426;SDS011;57872;55.432;37.248;2022-11-20T02:36:27;20.57;;;8.30;;
70426;SDS011;57872;55.432;37.248;2022-11-20T02:41:32;18.73;;;8.87;;
70426;SDS011;57872;55.432;37.248;2022-11-20T02:46:34;18.80;;;9.10;;
70426;SDS011;57872;55.432;37.248;2022-11-20T02:51:35;18.50;;;8.30;;
70426;SDS011;57872;55.432;37.248;2022-11-20T02:56:37;17.37;;;8.20;;
70426;SDS011;57872;55.432;37.248;2022-11-20T03:01:38;20.30;;;8.90;;
70426;SDS011;57872;55.432;37.248;2022-11-20T03:06:39;18.00;;;9.47;;
70426;SDS011;57872;55.432;37.248;2022-11-20T03:11:40;16.13;;;8.50;;
70426;SDS011;57872;55.432;37.248;2022-11-20T03:16:44;19.40;;;8.88;;
70426;SDS011;57872;55.432;37.248;2022-11-20T03:21:44;16.50;;;8.10;;
70426;SDS011;57872;55.432;37.248;2022-11-20T03:26:45;19.07;;;9.17;;
70426;SDS011;57872;55.432;37.248;2022-11-20T03:31:46;19.83;;;9.57;;
70426;SDS011;57872;55.432;37.248;2022-11-20T03:36:47;18.90;;;9.07;;
70426;SDS011;57872;55.432;37.248;2022-11-20T03:41:47;16.63;;;9.27;;
70426;SDS011;57872;55.432;37.248;2022-11-20T03:46:48;17.00;;;7.67;;
70426;SDS011;57872;55.432;37.248;2022-11-20T03:51:49;18.20;;;8.20;;
70426;SDS011;57872;55.432;37.248;2022-11-20T03:56:50;17.50;;;8.60;;
70426;SDS011;57872;55.432;37.248;2022-11-20T04:02:01;19.23;;;9.10;;
70426;SDS011;57872;55.432;37.248;2022-11-20T04:07:44;19.87;;;8.60;;
70426;SDS011;57872;55.432;37.248;2022-11-20T04:12:53;18.37;;;8.67;;
70426;SDS011;57872;55.432;37.248;2022-11-20T04:18:08;19.43;;;9.00;;
70426;SDS011;57872;55.432;37.248;2022-11-20T04:23:09;20.17;;;10.07;;
70426;SDS011;57872;55.432;37.248;2022-11-20T04:28:10;21.50;;;8.93;;
70426;SDS011;57872;55.432;37.248;2022-11-20T04:33:10;22.53;;;10.60;;
70426;SDS011;57872;55.432;37.248;2022-11-20T04:38:36;22.30;;;10.73;;
70426;SDS011;57872;55.432;37.248;2022-11-20T04:43:58;20.67;;;10.17;;
70426;SDS011;57872;55.432;37.248;2022-11-20T04:49:17;22.80;;;10.68;;
70426;SDS011;57872;55.432;37.248;2022-11-20T04:54:43;21.33;;;9.93;;
70426;SDS011;57872;55.432;37.248;2022-11-20T04:59:51;19.67;;;10.00;;
70426;SDS011;57872;55.432;37.248;2022-11-20T05:05:07;23.00;;;11.67;;
70426;SDS011;57872;55.432;37.248;2022-11-20T05:10:11;22.80;;;9.63;;
70426;SDS011;57872;55.432;37.248;2022-11-20T05:15:12;21.77;;;10.90;;
70426;SDS011;57872;55.432;37.248;2022-11-20T05:20:25;24.90;;;11.93;;
70426;SDS011;57872;55.432;37.248;2022-11-20T05:25:32;24.00;;;10.70;;
70426;SDS011;57872;55.432;37.248;2022-11-20T05:30:50;20.33;;;10.50;;
70426;SDS011;57872;55.432;37.248;2022-11-20T05:35:51;21.00;;;9.70;;
70426;SDS011;57872;55.432;37.248;2022-11-20T05:40:53;18.90;;;10.27;;
70426;SDS011;57872;55.432;37.248;2022-11-20T05:46:22;22.47;;;10.97;;
70426;SDS011;57872;55.432;37.248;2022-11-20T05:51:44;22.40;;;10.20;;
70426;SDS011;57872;55.432;37.248;2022-11-20T05:56:44;24.30;;;11.43;;
70426;SDS011;57872;55.432;37.248;2022-11-20T06:07:07;22.03;;;9.97;;
70426;SDS011;57872;55.432;37.248;2022-11-20T06:12:31;23.77;;;10.63;;
70426;SDS011;57872;55.432;37.248;2022-11-20T06:17:59;21.70;;;10.57;;
70426;SDS011;57872;55.432;37.248;2022-11-20T06:23:02;28.43;;;11.30;;
70426;SDS011;57872;55.432;37.248;2022-11-20T06:28:03;20.50;;;11.27;;
70426;SDS011;57872;55.432;37.248;2022-11-20T06:33:04;24.27;;;10.90;;
70426;SDS011;57872;55.432;37.248;2022-11-20T06:38:05;22.97;;;10.57;;
70426;SDS011;57872;55.432;37.248;2022-11-20T06:43:32;24.50;;;11.13;;
70426;SDS011;57872;55.432;37.248;2022-11-20T06:55:12;21.27;;;10.73;;
70426;SDS011;57872;55.432;37.248;2022-11-20T07:00:17;25.93;;;10.73;;
70426;SDS011;57872;55.432;37.248;2022-11-20T07:05:47;24.63;;;11.63;;
70426;SDS011;57872;55.432;37.248;2022-11-20T07:11:04;26.60;;;11.40;;
70426;SDS011;57872;55.432;37.248;2022-11-20T07:16:31;22.30;;;10.97;;
70426;SDS011;57872;55.432;37.248;2022-11-20T07:21:44;24.60;;;11.23;;
70426;SDS011;57872;55.432;37.248;2022-11-20T07:33:02;24.30;;;11.57;;
70426;SDS011;57872;55.432;37.248;2022-11-20T07:38:09;26.90;;;11.70;;
70426;SDS011;57872;55.432;37.248;2022-11-20T07:43:28;27.00;;;11.67;;
70426;SDS011;57872;55.432;37.248;2022-11-20T07:48:29;24.73;;;11.73;;
70426;SDS011;57872;55.432;37.248;2022-11-20T07:53:36;24.70;;;10.97;;
70426;SDS011;57872;55.432;37.248;2022-11-20T07:58:37;24.97;;;11.70;;
70426;SDS011;57872;55.432;37.248;2022-11-20T08:03:38;28.60;;;12.27;;
70426;SDS011;57872;55.432;37.248;2022-11-20T08:08:40;26.37;;;12.47;;
70426;SDS011;57872;55.432;37.248;2022-11-20T08:13:41;28.23;;;12.67;;
70426;SDS011;57872;55.432;37.248;2022-11-20T08:19:28;26.13;;;11.70;;
70426;SDS011;57872;55.432;37.248;2022-11-20T08:24:29;28.13;;;12.53;;
70426;SDS011;57872;55.432;37.248;2022-11-20T08:29:40;27.27;;;12.47;;
70426;SDS011;57872;55.432;37.248;2022-11-20T08:34:41;25.57;;;11.43;;
70426;SDS011;57872;55.432;37.248;2022-11-20T08:39:47;19.77;;;9.70;;
70426;SDS011;57872;55.432;37.248;2022-11-20T08:45:12;21.50;;;9.87;;
70426;SDS011;57872;55.432;37.248;2022-11-20T08:50:14;23.10;;;9.77;;
70426;SDS011;57872;55.432;37.248;2022-11-20T08:55:19;18.80;;;9.33;;
70426;SDS011;57872;55.432;37.248;2022-11-20T09:00:40;19.67;;;9.50;;
70426;SDS011;57872;55.432;37.248;2022-11-20T09:05:43;29.45;;;11.80;;
70426;SDS011;57872;55.432;37.248;2022-11-20T09:10:44;23.77;;;11.00;;
70426;SDS011;57872;55.432;37.248;2022-11-20T09:15:49;24.07;;;11.00;;
70426;SDS011;57872;55.432;37.248;2022-11-20T09:21:11;22.30;;;10.23;;
70426;SDS011;57872;55.432;37.248;2022-11-20T09:26:20;21.30;;;10.00;;
70426;SDS011;57872;55.432;37.248;2022-11-20T09:31:52;23.33;;;10.30;;
70426;SDS011;57872;55.432;37.248;2022-11-20T09:36:52;18.53;;;8.63;;
70426;SDS011;57872;55.432;37.248;2022-11-20T09:41:56;19.93;;;10.50;;
70426;SDS011;57872;55.432;37.248;2022-11-20T09:48:00;22.33;;;10.03;;
70426;SDS011;57872;55.432;37.248;2022-11-20T09:59:02;21.20;;;8.93;;
70426;SDS011;57872;55.432;37.248;2022-11-20T10:04:19;17.67;;;8.00;;
70426;SDS011;57872;55.432;37.248;2022-11-20T10:10:22;19.20;;;8.37;;
70426;SDS011;57872;55.432;37.248;2022-11-20T10:16:46;18.07;;;8.50;;
70426;SDS011;57872;55.432;37.248;2022-11-20T10:34:27;19.97;;;10.10;;
70426;SDS011;57872;55.432;37.248;2022-11-20T10:50:31;21.63;;;9.10;;
70426;SDS011;57872;55.432;37.248;2022-11-20T10:55:54;21.23;;;10.27;;
70426;SDS011;57872;55.432;37.248;2022-11-20T11:01:05;17.23;;;8.17;;
70426;SDS011;57872;55.432;37.248;2022-11-20T11:11:44;19.97;;;9.40;;
70426;SDS011;57872;55.432;37.248;2022-11-20T11:16:56;20.43;;;9.00;;
70426;SDS011;57872;55.432;37.248;2022-11-20T11:22:16;17.83;;;8.10;;
70426;SDS011;57872;55.432;37.248;2022-11-20T11:27:19;20.10;;;9.77;;
70426;SDS011;57872;55.432;37.248;2022-11-20T11:32:20;21.20;;;8.80;;
70426;SDS011;57872;55.432;37.248;2022-11-20T11:37:22;21.57;;;9.40;;
70426;SDS011;57872;55.432;37.248;2022-11-20T11:42:22;19.77;;;8.57;;
70426;SDS011;57872;55.432;37.248;2022-11-20T11:47:30;19.47;;;9.00;;
70426;SDS011;57872;55.432;37.248;2022-11-20T11:52:33;21.30;;;9.10;;
70426;SDS011;57872;55.432;37.248;2022-11-20T12:03:09;21.33;;;8.60;;
70426;SDS011;57872;55.432;37.248;2022-11-20T12:08:43;16.73;;;8.67;;
70426;SDS011;57872;55.432;37.248;2022-11-20T12:13:54;19.60;;;9.10;;
70426;SDS011;57872;55.432;37.248;2022-11-20T12:19:08;20.03;;;8.57;;
70426;SDS011;57872;55.432;37.248;2022-11-20T12:29:15;22.17;;;8.70;;
70426;SDS011;57872;55.432;37.248;2022-11-20T12:34:31;19.10;;;9.10;;
70426;SDS011;57872;55.432;37.248;2022-11-20T12:39:42;17.30;;;8.83;;
70426;SDS011;57872;55.432;37.248;2022-11-20T12:55:33;20.37;;;9.77;;
70426;SDS011;57872;55.432;37.248;2022-11-20T13:00:43;21.77;;;9.13;;
70426;SDS011;57872;55.432;37.248;2022-11-20T13:05:57;17.60;;;8.57;;
70426;SDS011;57872;55.432;37.248;2022-11-20T13:16:26;19.30;;;8.40;;
70426;SDS011;57872;55.432;37.248;2022-11-20T13:21:37;24.37;;;10.80;;
70426;SDS011;57872;55.432;37.248;2022-11-20T13:26:42;20.53;;;9.83;;
70426;SDS011;57872;55.432;37.248;2022-11-20T13:31:43;20.27;;;8.63;;
70426;SDS011;57872;55.432;37.248;2022-11-20T13:36:50;20.43;;;9.50;;
70426;SDS011;57872;55.432;37.248;2022-11-20T13:41:56;19.43;;;9.73;;
70426;SDS011;57872;55.432;37.248;2022-11-20T13:46:58;21.00;;;9.70;;
70426;SDS011;57872;55.432;37.248;2022-11-20T13:52:19;17.80;;;8.30;;
70426;SDS011;57872;55.432;37.248;2022-11-20T14:03:06;22.47;;;9.40;;
70426;SDS011;57872;55.432;37.248;2022-11-20T14:09:01;23.00;;;10.97;;
70426;SDS011;57872;55.432;37.248;2022-11-20T14:14:04;24.60;;;10.83;;
70426;SDS011;57872;55.432;37.248;2022-11-20T14:24:27;23.80;;;10.75;;
70426;SDS011;57872;55.432;37.248;2022-11-20T14:29:38;21.40;;;9.93;;
70426;SDS011;57872;55.432;37.248;2022-11-20T14:34:56;24.37;;;11.63;;
70426;SDS011;57872;55.432;37.248;2022-11-20T14:40:32;24.10;;;11.37;;
70426;SDS011;57872;55.432;37.248;2022-11-20T14:46:36;25.13;;;10.33;;
70426;SDS011;57872;55.432;37.248;2022-11-20T15:09:22;24.63;;;12.40;;
70426;SDS011;57872;55.432;37.248;2022-11-20T15:15:35;24.67;;;11.30;;
70426;SDS011;57872;55.432;37.248;2022-11-20T15:21:13;22.30;;;11.60;;
70426;SDS011;57872;55.432;37.248;2022-11-20T15:33:00;21.57;;;10.40;;
70426;SDS011;57872;55.432;37.248;2022-11-20T15:38:28;19.80;;;10.77;;
70426;SDS011;57872;55.432;37.248;2022-11-20T16:01:50;20.70;;;10.63;;
70426;SDS011;57872;55.432;37.248;2022-11-20T16:06:52;23.47;;;11.13;;
70426;SDS011;57872;55.432;37.248;2022-11-20T16:11:52;24.93;;;10.80;;
70426;SDS011;57872;55.432;37.248;2022-11-20T16:16:56;23.60;;;11.63;;
70426;SDS011;57872;55.432;37.248;2022-11-20T16:22:05;22.83;;;11.07;;
70426;SDS011;57872;55.432;37.248;2022-11-20T16:27:10;29.13;;;12.40;;
70426;SDS011;57872;55.432;37.248;2022-11-20T16:32:16;25.67;;;11.47;;
70426;SDS011;57872;55.432;37.248;2022-11-20T16:37:28;24.25;;;11.43;;
70426;SDS011;57872;55.432;37.248;2022-11-20T16:42:41;23.53;;;10.90;;
70426;SDS011;57872;55.432;37.248;2022-11-20T16:48:04;22.00;;;10.00;;
70426;SDS011;57872;55.432;37.248;2022-11-20T16:53:05;27.17;;;11.07;;
70426;SDS011;57872;55.432;37.248;2022-11-20T16:58:15;25.67;;;12.10;;
70426;SDS011;57872;55.432;37.248;2022-11-20T17:03:22;24.43;;;10.73;;
70426;SDS011;57872;55.432;37.248;2022-11-20T17:08:22;25.47;;;11.60;;
70426;SDS011;57872;55.432;37.248;2022-11-20T17:13:23;29.03;;;13.37;;
70426;SDS011;57872;55.432;37.248;2022-11-20T17:18:23;25.03;;;11.90;;
70426;SDS011;57872;55.432;37.248;2022-11-20T17:28:31;24.00;;;11.50;;
70426;SDS011;57872;55.432;37.248;2022-11-20T17:33:35;21.30;;;10.87;;
70426;SDS011;57872;55.432;37.248;2022-11-20T17:38:37;23.97;;;11.83;;
70426;SDS011;57872;55.432;37.248;2022-11-20T17:43:41;20.43;;;10.27;;
70426;SDS011;57872;55.432;37.248;2022-11-20T17:48:46;22.47;;;10.90;;
70426;SDS011;57872;55.432;37.248;2022-11-20T17:53:49;23.93;;;11.37;;
70426;SDS011;57872;55.432;37.248;2022-11-20T17:58:51;22.87;;;10.90;;
70426;SDS011;57872;55.432;37.248;2022-11-20T18:03:52;24.93;;;11.27;;
70426;SDS011;57872;55.432;37.248;2022-11-20T18:08:58;24.30;;;11.07;;
70426;SDS011;57872;55.432;37.248;2022-11-20T18:14:01;25.67;;;11.87;;
70426;SDS011;57872;55.432;37.248;2022-11-20T18:19:24;22.90;;;11.30;;
70426;SDS011;57872;55.432;37.248;2022-11-20T18:24:29;26.30;;;12.47;;
70426;SDS011;57872;55.432;37.248;2022-11-20T18:29:31;25.50;;;10.93;;
70426;SDS011;57872;55.432;37.248;2022-11-20T18:34:32;23.60;;;11.40;;
70426;SDS011;57872;55.432;37.248;2022-11-20T18:39:36;26.67;;;12.90;;
70426;SDS011;57872;55.432;37.248;2022-11-20T18:44:37;23.77;;;11.32;;
70426;SDS011;57872;55.432;37.248;2022-11-20T18:49:54;25.20;;;11.60;;
70426;SDS011;57872;55.432;37.248;2022-11-20T18:55:00;24.27;;;10.97;;
70426;SDS011;57872;55.432;37.248;2022-11-20T19:00:06;27.77;;;11.93;;
70426;SDS011;57872;55.432;37.248;2022-11-20T19:05:08;23.00;;;11.27;;
70426;SDS011;57872;55.432;37.248;2022-11-20T19:16:06;25.77;;;11.27;;
70426;SDS011;57872;55.432;37.248;2022-11-20T19:21:27;25.83;;;12.77;;
70426;SDS011;57872;55.432;37.248;2022-11-20T19:26:28;36.00;;;14.67;;
70426;SDS011;57872;55.432;37.248;2022-11-20T19:31:29;34.13;;;14.87;;
70426;SDS011;57872;55.432;37.248;2022-11-20T19:36:36;30.50;;;13.70;;
70426;SDS011;57872;55.432;37.248;2022-11-20T19:41:58;26.87;;;13.03;;
70426;SDS011;57872;55.432;37.248;2022-11-20T19:46:58;33.20;;;14.77;;
70426;SDS011;57872;55.432;37.248;2022-11-20T19:52:01;35.07;;;14.10;;
70426;SDS011;57872;55.432;37.248;2022-11-20T19:57:02;34.40;;;14.90;;
70426;SDS011;57872;55.432;37.248;2022-11-20T20:02:03;29.27;;;14.63;;
70426;SDS011;57872;55.432;37.248;2022-11-20T20:07:03;36.67;;;15.03;;
70426;SDS011;57872;55.432;37.248;2022-11-20T20:12:05;30.27;;;14.17;;
70426;SDS011;57872;55.432;37.248;2022-11-20T20:17:07;32.47;;;13.60;;
70426;SDS011;57872;55.432;37.248;2022-11-20T20:22:07;32.30;;;14.00;;
70426;SDS011;57872;55.432;37.248;2022-11-20T20:27:08;29.17;;;12.30;;
70426;SDS011;57872;55.432;37.248;2022-11-20T20:32:09;29.47;;;14.00;;
70426;SDS011;57872;55.432;37.248;2022-11-20T20:37:09;29.10;;;13.70;;
70426;SDS011;57872;55.432;37.248;2022-11-20T20:42:10;28.23;;;12.60;;
70426;SDS011;57872;55.432;37.248;2022-11-20T20:47:10;28.63;;;12.83;;
70426;SDS011;57872;55.432;37.248;2022-11-20T20:52:19;27.37;;;12.43;;
70426;SDS011;57872;55.432;37.248;2022-11-20T21:04:46;24.87;;;11.43;;
70426;SDS011;57872;55.432;37.248;2022-11-20T21:16:47;28.13;;;12.50;;
70426;SDS011;57872;55.432;37.248;2022-11-20T21:22:10;27.37;;;11.17;;
70426;SDS011;57872;55.432;37.248;2022-11-20T21:33:20;30.43;;;12.77;;
70426;SDS011;57872;55.432;37.248;2022-11-20T21:44:36;28.67;;;12.80;;
70426;SDS011;57872;55.432;37.248;2022-11-20T23:38:37;38.93;;;16.07;;
